Aérodrome :
LOGIN :

S'inscrire | Disclaimer

   EN    FR    IT 

 










Légende :    VFR   VFR Marginal   IFR   IFR Intensif   IFR Très Intensif
Visi : 
Plafond : 
>= 8 km
>= 3000ft
5 à 8 km
1000 à 3000 ft
1500m à 5 km
500 à 1000 ft
800 à 1500m
200 à 500 ft
< 800m
< 200 ft
Symboles :   Orages  Brouillard  Fortes neiges  Fortes précipitations  Vent > 20 kt
SIGMETs :   Divers  Orages  Givrage  Turbulence  Onde Orograph.  Cendres Volcan.







- Altitude de l'aérodrome : 870 ft
- Code IATA : ETZ
- Voir les cartes d'approche


LFJL - Metz Nancy Lorraine

DERNIER METAR :
  • 190330Z AUTO 10004KT 5000 BR OVC018 M01/M02 Q1021 TEMPO 2000 BKN004

METARs EXPIRÉS :
  • 190300Z AUTO 06005KT 4000 BR OVC019 M02/M03 Q1021 TEMPO 2000 BKN004
  • 190230Z AUTO 08003KT 4600 0400 R22/P2000 R04/0550U BCFG OVC020 M04/M04 Q1021 TEMPO 2000 BKN004
  • 190200Z AUTO 09008KT 5000 BR FEW019 M05/M06 Q1021 TEMPO 2000 BKN004
  • 190130Z AUTO 08005KT 3800 0250 R22/P2000 R04/0275N BCFG FEW025 M03/M04 Q1022 TEMPO 2000 BKN004
  • 190100Z AUTO VRB02KT 2900 BR NSC M04/M05 Q1022 TEMPO BKN004

TAF TAF LFJL
Valide du 19 à 00h jusqu'au 20 à 00h UTC


182300Z 1900/1924 VRB03KT 3000 BR SCT005
TEMPO 1900/1912 2000 BKN004
BECMG 1910/1912 6000 NSW
Pas de NOTAMs connus pour ce terrain.



MET'MAP, la Météo Aéronautique d'un coup d'oeil ! - Copyright ORBIFLY Décembre 2007 - Disclaimer

ORBIFLY MET'MAP TEAM :

Programmation & Développement : Alexandra Zaïnal
Conception & Développement : Baudouin d'Aumeries
Co-Programmation & Développement : Marc-Olivier Méhu
Soutien technique & logistique : Manuel Goepfert

Contact : metmap@orbifly.com




SOURCES & CREDITS :

   NOAA